sensor_id;sensor_type;location;lat;lon;timestamp;P1;durP1;ratioP1;P2;durP2;ratioP2
3726;SDS011;1879;45.876;12.300;2022-08-24T00:01:23;2.93;;;2.63;;
3726;SDS011;1879;45.876;12.300;2022-08-24T00:03:52;3.83;;;2.80;;
3726;SDS011;1879;45.876;12.300;2022-08-24T00:06:22;3.97;;;3.50;;
3726;SDS011;1879;45.876;12.300;2022-08-24T00:08:50;3.60;;;3.30;;
3726;SDS011;1879;45.876;12.300;2022-08-24T00:11:18;3.70;;;3.40;;
3726;SDS011;1879;45.876;12.300;2022-08-24T00:13:47;3.50;;;3.20;;
3726;SDS011;1879;45.876;12.300;2022-08-24T00:16:15;3.70;;;3.40;;
3726;SDS011;1879;45.876;12.300;2022-08-24T00:18:43;3.97;;;3.40;;
3726;SDS011;1879;45.876;12.300;2022-08-24T00:21:10;3.87;;;3.57;;
3726;SDS011;1879;45.876;12.300;2022-08-24T00:23:37;3.60;;;3.30;;
3726;SDS011;1879;45.876;12.300;2022-08-24T00:26:06;3.47;;;3.17;;
3726;SDS011;1879;45.876;12.300;2022-08-24T00:28:34;4.30;;;3.70;;
3726;SDS011;1879;45.876;12.300;2022-08-24T00:31:03;3.60;;;3.30;;
3726;SDS011;1879;45.876;12.300;2022-08-24T00:33:31;3.90;;;3.50;;
3726;SDS011;1879;45.876;12.300;2022-08-24T00:35:58;5.80;;;3.63;;
3726;SDS011;1879;45.876;12.300;2022-08-24T00:38:25;3.93;;;3.53;;
3726;SDS011;1879;45.876;12.300;2022-08-24T00:40:52;4.30;;;3.73;;
3726;SDS011;1879;45.876;12.300;2022-08-24T00:43:20;5.00;;;4.50;;
3726;SDS011;1879;45.876;12.300;2022-08-24T00:45:50;4.63;;;4.23;;
3726;SDS011;1879;45.876;12.300;2022-08-24T00:48:41;8.77;;;4.80;;
3726;SDS011;1879;45.876;12.300;2022-08-24T00:51:13;4.37;;;4.07;;
3726;SDS011;1879;45.876;12.300;2022-08-24T00:53:48;4.93;;;4.43;;
3726;SDS011;1879;45.876;12.300;2022-08-24T00:56:22;4.40;;;4.00;;
3726;SDS011;1879;45.876;12.300;2022-08-24T00:58:55;4.43;;;4.03;;
3726;SDS011;1879;45.876;12.300;2022-08-24T01:01:27;4.17;;;3.40;;
3726;SDS011;1879;45.876;12.300;2022-08-24T01:03:55;4.60;;;3.80;;
3726;SDS011;1879;45.876;12.300;2022-08-24T01:06:23;4.57;;;4.17;;
3726;SDS011;1879;45.876;12.300;2022-08-24T01:08:51;3.90;;;3.50;;
3726;SDS011;1879;45.876;12.300;2022-08-24T01:11:19;4.10;;;3.80;;
3726;SDS011;1879;45.876;12.300;2022-08-24T01:13:48;4.53;;;3.70;;
3726;SDS011;1879;45.876;12.300;2022-08-24T01:16:18;4.07;;;3.63;;
3726;SDS011;1879;45.876;12.300;2022-08-24T01:19:01;4.20;;;3.80;;
3726;SDS011;1879;45.876;12.300;2022-08-24T01:21:33;3.67;;;3.37;;
3726;SDS011;1879;45.876;12.300;2022-08-24T01:24:09;5.03;;;3.33;;
3726;SDS011;1879;45.876;12.300;2022-08-24T01:26:39;4.63;;;3.47;;
3726;SDS011;1879;45.876;12.300;2022-08-24T01:29:13;3.17;;;2.90;;
3726;SDS011;1879;45.876;12.300;2022-08-24T01:31:42;5.43;;;4.80;;
3726;SDS011;1879;45.876;12.300;2022-08-24T01:34:09;3.70;;;3.40;;
3726;SDS011;1879;45.876;12.300;2022-08-24T01:36:37;6.53;;;3.50;;
3726;SDS011;1879;45.876;12.300;2022-08-24T01:39:09;3.57;;;3.27;;
3726;SDS011;1879;45.876;12.300;2022-08-24T01:41:39;3.07;;;2.87;;
3726;SDS011;1879;45.876;12.300;2022-08-24T01:44:06;4.30;;;2.83;;
3726;SDS011;1879;45.876;12.300;2022-08-24T01:46:33;4.77;;;3.00;;
3726;SDS011;1879;45.876;12.300;2022-08-24T01:49:01;3.50;;;3.20;;
3726;SDS011;1879;45.876;12.300;2022-08-24T01:51:29;3.23;;;2.73;;
3726;SDS011;1879;45.876;12.300;2022-08-24T01:53:57;3.70;;;3.00;;
3726;SDS011;1879;45.876;12.300;2022-08-24T01:56:28;4.13;;;3.23;;
3726;SDS011;1879;45.876;12.300;2022-08-24T01:58:56;3.83;;;3.53;;
3726;SDS011;1879;45.876;12.300;2022-08-24T02:01:23;3.87;;;3.33;;
3726;SDS011;1879;45.876;12.300;2022-08-24T02:03:53;3.60;;;3.30;;
3726;SDS011;1879;45.876;12.300;2022-08-24T02:06:20;3.17;;;2.87;;
3726;SDS011;1879;45.876;12.300;2022-08-24T02:08:47;3.37;;;2.87;;
3726;SDS011;1879;45.876;12.300;2022-08-24T02:11:14;3.67;;;3.37;;
3726;SDS011;1879;45.876;12.300;2022-08-24T02:13:42;3.43;;;3.10;;
3726;SDS011;1879;45.876;12.300;2022-08-24T02:16:09;3.63;;;3.00;;
3726;SDS011;1879;45.876;12.300;2022-08-24T02:18:36;3.27;;;2.97;;
3726;SDS011;1879;45.876;12.300;2022-08-24T02:21:05;3.30;;;3.00;;
3726;SDS011;1879;45.876;12.300;2022-08-24T02:23:33;3.80;;;3.23;;
3726;SDS011;1879;45.876;12.300;2022-08-24T02:26:00;3.80;;;3.40;;
3726;SDS011;1879;45.876;12.300;2022-08-24T02:28:27;3.60;;;2.87;;
3726;SDS011;1879;45.876;12.300;2022-08-24T02:30:56;2.90;;;2.70;;
3726;SDS011;1879;45.876;12.300;2022-08-24T02:33:23;4.63;;;3.30;;
3726;SDS011;1879;45.876;12.300;2022-08-24T02:35:51;3.53;;;2.50;;
3726;SDS011;1879;45.876;12.300;2022-08-24T02:38:18;3.20;;;2.90;;
3726;SDS011;1879;45.876;12.300;2022-08-24T02:40:45;3.30;;;2.73;;
3726;SDS011;1879;45.876;12.300;2022-08-24T02:43:12;3.10;;;2.90;;
3726;SDS011;1879;45.876;12.300;2022-08-24T02:45:40;2.80;;;2.60;;
3726;SDS011;1879;45.876;12.300;2022-08-24T02:48:10;3.73;;;2.60;;
3726;SDS011;1879;45.876;12.300;2022-08-24T02:50:38;3.50;;;3.20;;
3726;SDS011;1879;45.876;12.300;2022-08-24T02:53:06;5.30;;;4.00;;
3726;SDS011;1879;45.876;12.300;2022-08-24T02:55:34;3.40;;;3.10;;
3726;SDS011;1879;45.876;12.300;2022-08-24T02:58:03;3.73;;;3.30;;
3726;SDS011;1879;45.876;12.300;2022-08-24T03:00:30;3.80;;;3.50;;
3726;SDS011;1879;45.876;12.300;2022-08-24T03:02:57;5.73;;;3.20;;
3726;SDS011;1879;45.876;12.300;2022-08-24T03:05:26;3.07;;;2.80;;
3726;SDS011;1879;45.876;12.300;2022-08-24T03:07:54;5.07;;;2.90;;
3726;SDS011;1879;45.876;12.300;2022-08-24T03:10:21;3.77;;;2.70;;
3726;SDS011;1879;45.876;12.300;2022-08-24T03:12:49;3.20;;;2.90;;
3726;SDS011;1879;45.876;12.300;2022-08-24T03:15:17;6.03;;;3.80;;
3726;SDS011;1879;45.876;12.300;2022-08-24T03:17:46;4.60;;;3.40;;
3726;SDS011;1879;45.876;12.300;2022-08-24T03:20:15;3.63;;;3.33;;
3726;SDS011;1879;45.876;12.300;2022-08-24T03:22:45;3.73;;;2.73;;
3726;SDS011;1879;45.876;12.300;2022-08-24T03:25:13;5.83;;;3.30;;
3726;SDS011;1879;45.876;12.300;2022-08-24T03:27:41;5.87;;;3.47;;
3726;SDS011;1879;45.876;12.300;2022-08-24T03:30:09;3.93;;;3.63;;
3726;SDS011;1879;45.876;12.300;2022-08-24T03:32:39;3.87;;;3.57;;
3726;SDS011;1879;45.876;12.300;2022-08-24T03:35:07;3.47;;;3.17;;
3726;SDS011;1879;45.876;12.300;2022-08-24T03:37:34;3.13;;;2.93;;
3726;SDS011;1879;45.876;12.300;2022-08-24T03:40:03;5.97;;;3.30;;
3726;SDS011;1879;45.876;12.300;2022-08-24T03:42:31;3.80;;;2.93;;
3726;SDS011;1879;45.876;12.300;2022-08-24T03:44:58;3.47;;;3.17;;
3726;SDS011;1879;45.876;12.300;2022-08-24T03:47:25;3.60;;;3.30;;
3726;SDS011;1879;45.876;12.300;2022-08-24T03:49:52;3.80;;;3.50;;
3726;SDS011;1879;45.876;12.300;2022-08-24T03:52:20;3.57;;;3.27;;
3726;SDS011;1879;45.876;12.300;2022-08-24T03:54:47;4.53;;;3.43;;
3726;SDS011;1879;45.876;12.300;2022-08-24T03:57:16;3.40;;;3.10;;
3726;SDS011;1879;45.876;12.300;2022-08-24T03:59:43;3.57;;;3.27;;
3726;SDS011;1879;45.876;12.300;2022-08-24T04:02:10;3.20;;;2.90;;
3726;SDS011;1879;45.876;12.300;2022-08-24T04:04:37;4.07;;;3.60;;
3726;SDS011;1879;45.876;12.300;2022-08-24T04:07:04;3.43;;;3.10;;
3726;SDS011;1879;45.876;12.300;2022-08-24T04:09:31;3.47;;;3.20;;
3726;SDS011;1879;45.876;12.300;2022-08-24T04:11:58;3.97;;;3.63;;
3726;SDS011;1879;45.876;12.300;2022-08-24T04:14:26;3.30;;;2.90;;
3726;SDS011;1879;45.876;12.300;2022-08-24T04:16:53;3.90;;;3.50;;
3726;SDS011;1879;45.876;12.300;2022-08-24T04:19:20;3.60;;;3.30;;
3726;SDS011;1879;45.876;12.300;2022-08-24T04:21:47;3.53;;;3.03;;
3726;SDS011;1879;45.876;12.300;2022-08-24T04:24:15;4.00;;;3.33;;
3726;SDS011;1879;45.876;12.300;2022-08-24T04:26:42;3.37;;;3.17;;
3726;SDS011;1879;45.876;12.300;2022-08-24T04:29:09;5.73;;;3.57;;
3726;SDS011;1879;45.876;12.300;2022-08-24T04:31:40;3.80;;;3.50;;
3726;SDS011;1879;45.876;12.300;2022-08-24T04:34:08;3.47;;;3.27;;
3726;SDS011;1879;45.876;12.300;2022-08-24T04:36:36;3.70;;;3.40;;
3726;SDS011;1879;45.876;12.300;2022-08-24T04:39:06;3.73;;;3.43;;
3726;SDS011;1879;45.876;12.300;2022-08-24T04:41:33;4.00;;;3.70;;
3726;SDS011;1879;45.876;12.300;2022-08-24T04:44:01;3.87;;;3.57;;
3726;SDS011;1879;45.876;12.300;2022-08-24T04:46:28;3.33;;;3.03;;
3726;SDS011;1879;45.876;12.300;2022-08-24T04:49:00;9.93;;;3.90;;
3726;SDS011;1879;45.876;12.300;2022-08-24T04:51:28;3.70;;;3.23;;
3726;SDS011;1879;45.876;12.300;2022-08-24T04:53:55;3.50;;;3.20;;
3726;SDS011;1879;45.876;12.300;2022-08-24T04:56:22;3.60;;;3.30;;
3726;SDS011;1879;45.876;12.300;2022-08-24T04:58:50;2.80;;;2.60;;
3726;SDS011;1879;45.876;12.300;2022-08-24T05:01:19;4.20;;;3.13;;
3726;SDS011;1879;45.876;12.300;2022-08-24T05:03:47;3.30;;;3.00;;
3726;SDS011;1879;45.876;12.300;2022-08-24T05:06:20;5.90;;;2.90;;
3726;SDS011;1879;45.876;12.300;2022-08-24T05:08:48;2.77;;;2.57;;
3726;SDS011;1879;45.876;12.300;2022-08-24T05:11:16;3.93;;;2.90;;
3726;SDS011;1879;45.876;12.300;2022-08-24T05:13:44;3.20;;;2.70;;
3726;SDS011;1879;45.876;12.300;2022-08-24T05:16:13;3.30;;;3.00;;
3726;SDS011;1879;45.876;12.300;2022-08-24T05:18:41;3.73;;;3.43;;
3726;SDS011;1879;45.876;12.300;2022-08-24T05:21:10;3.40;;;3.10;;
3726;SDS011;1879;45.876;12.300;2022-08-24T05:23:41;3.93;;;3.37;;
3726;SDS011;1879;45.876;12.300;2022-08-24T05:26:09;4.40;;;4.00;;
3726;SDS011;1879;45.876;12.300;2022-08-24T05:28:38;3.60;;;3.27;;
3726;SDS011;1879;45.876;12.300;2022-08-24T05:31:06;3.90;;;3.40;;
3726;SDS011;1879;45.876;12.300;2022-08-24T05:33:34;3.80;;;3.50;;
3726;SDS011;1879;45.876;12.300;2022-08-24T05:36:01;3.93;;;3.63;;
3726;SDS011;1879;45.876;12.300;2022-08-24T05:38:28;3.30;;;2.97;;
3726;SDS011;1879;45.876;12.300;2022-08-24T05:40:57;4.23;;;3.70;;
3726;SDS011;1879;45.876;12.300;2022-08-24T05:43:28;4.23;;;3.83;;
3726;SDS011;1879;45.876;12.300;2022-08-24T05:45:55;4.57;;;3.90;;
3726;SDS011;1879;45.876;12.300;2022-08-24T05:48:24;4.23;;;3.23;;
3726;SDS011;1879;45.876;12.300;2022-08-24T05:50:52;3.80;;;3.50;;
3726;SDS011;1879;45.876;12.300;2022-08-24T05:53:19;4.23;;;3.30;;
3726;SDS011;1879;45.876;12.300;2022-08-24T05:55:46;3.70;;;3.40;;
3726;SDS011;1879;45.876;12.300;2022-08-24T05:58:14;4.80;;;3.03;;
3726;SDS011;1879;45.876;12.300;2022-08-24T06:00:41;3.20;;;3.00;;
3726;SDS011;1879;45.876;12.300;2022-08-24T06:03:10;3.30;;;3.00;;
3726;SDS011;1879;45.876;12.300;2022-08-24T06:05:38;3.27;;;2.97;;
3726;SDS011;1879;45.876;12.300;2022-08-24T06:08:06;3.47;;;3.17;;
3726;SDS011;1879;45.876;12.300;2022-08-24T06:10:37;3.00;;;2.70;;
3726;SDS011;1879;45.876;12.300;2022-08-24T06:13:05;3.70;;;3.30;;
3726;SDS011;1879;45.876;12.300;2022-08-24T06:15:34;4.17;;;3.70;;
3726;SDS011;1879;45.876;12.300;2022-08-24T06:18:01;4.80;;;2.80;;
3726;SDS011;1879;45.876;12.300;2022-08-24T06:20:28;4.87;;;3.80;;
3726;SDS011;1879;45.876;12.300;2022-08-24T06:22:55;5.07;;;3.90;;
3726;SDS011;1879;45.876;12.300;2022-08-24T06:25:22;4.87;;;3.90;;
3726;SDS011;1879;45.876;12.300;2022-08-24T06:28:07;5.00;;;3.30;;
3726;SDS011;1879;45.876;12.300;2022-08-24T06:30:35;3.53;;;3.17;;
3726;SDS011;1879;45.876;12.300;2022-08-24T06:33:02;3.67;;;3.37;;
3726;SDS011;1879;45.876;12.300;2022-08-24T06:35:30;4.70;;;3.83;;
3726;SDS011;1879;45.876;12.300;2022-08-24T06:37:57;4.50;;;4.10;;
3726;SDS011;1879;45.876;12.300;2022-08-24T06:40:23;4.37;;;3.97;;
3726;SDS011;1879;45.876;12.300;2022-08-24T06:42:51;6.10;;;4.23;;
3726;SDS011;1879;45.876;12.300;2022-08-24T06:45:18;5.90;;;5.30;;
3726;SDS011;1879;45.876;12.300;2022-08-24T06:47:48;6.83;;;3.83;;
3726;SDS011;1879;45.876;12.300;2022-08-24T06:50:15;6.93;;;5.13;;
3726;SDS011;1879;45.876;12.300;2022-08-24T06:52:42;5.13;;;4.73;;
3726;SDS011;1879;45.876;12.300;2022-08-24T06:55:09;4.73;;;4.33;;
3726;SDS011;1879;45.876;12.300;2022-08-24T06:57:37;5.73;;;3.67;;
3726;SDS011;1879;45.876;12.300;2022-08-24T07:00:05;4.60;;;4.20;;
3726;SDS011;1879;45.876;12.300;2022-08-24T07:02:34;5.90;;;4.23;;
3726;SDS011;1879;45.876;12.300;2022-08-24T07:05:02;4.10;;;3.70;;
3726;SDS011;1879;45.876;12.300;2022-08-24T07:07:30;4.07;;;3.67;;
3726;SDS011;1879;45.876;12.300;2022-08-24T07:09:58;6.37;;;3.50;;
3726;SDS011;1879;45.876;12.300;2022-08-24T07:12:25;4.53;;;4.07;;
3726;SDS011;1879;45.876;12.300;2022-08-24T07:14:52;3.90;;;3.33;;
3726;SDS011;1879;45.876;12.300;2022-08-24T07:17:19;4.00;;;2.90;;
3726;SDS011;1879;45.876;12.300;2022-08-24T07:19:47;5.33;;;3.93;;
3726;SDS011;1879;45.876;12.300;2022-08-24T07:22:16;3.70;;;3.20;;
3726;SDS011;1879;45.876;12.300;2022-08-24T07:24:43;3.77;;;3.47;;
3726;SDS011;1879;45.876;12.300;2022-08-24T07:27:11;3.57;;;3.27;;
3726;SDS011;1879;45.876;12.300;2022-08-24T07:29:38;2.83;;;2.60;;
3726;SDS011;1879;45.876;12.300;2022-08-24T07:32:06;2.50;;;2.30;;
3726;SDS011;1879;45.876;12.300;2022-08-24T07:34:34;4.20;;;2.90;;
3726;SDS011;1879;45.876;12.300;2022-08-24T07:37:02;3.47;;;3.00;;
3726;SDS011;1879;45.876;12.300;2022-08-24T07:39:31;3.57;;;2.30;;
3726;SDS011;1879;45.876;12.300;2022-08-24T07:41:58;3.27;;;2.97;;
3726;SDS011;1879;45.876;12.300;2022-08-24T07:44:25;3.40;;;2.30;;
3726;SDS011;1879;45.876;12.300;2022-08-24T07:46:52;3.07;;;2.50;;
3726;SDS011;1879;45.876;12.300;2022-08-24T07:49:19;2.90;;;2.63;;
3726;SDS011;1879;45.876;12.300;2022-08-24T07:51:46;5.83;;;2.87;;
3726;SDS011;1879;45.876;12.300;2022-08-24T07:54:13;3.27;;;2.67;;
3726;SDS011;1879;45.876;12.300;2022-08-24T07:56:41;2.90;;;2.40;;
3726;SDS011;1879;45.876;12.300;2022-08-24T07:59:08;3.30;;;2.43;;
3726;SDS011;1879;45.876;12.300;2022-08-24T08:01:36;2.40;;;2.20;;
3726;SDS011;1879;45.876;12.300;2022-08-24T08:04:03;2.77;;;2.20;;
3726;SDS011;1879;45.876;12.300;2022-08-24T08:06:31;3.23;;;2.33;;
3726;SDS011;1879;45.876;12.300;2022-08-24T08:08:58;3.67;;;2.20;;
3726;SDS011;1879;45.876;12.300;2022-08-24T08:11:26;4.03;;;2.47;;
3726;SDS011;1879;45.876;12.300;2022-08-24T08:13:55;2.47;;;2.17;;
3726;SDS011;1879;45.876;12.300;2022-08-24T08:16:22;3.93;;;2.37;;
3726;SDS011;1879;45.876;12.300;2022-08-24T08:18:49;4.43;;;3.00;;
3726;SDS011;1879;45.876;12.300;2022-08-24T08:21:16;2.67;;;2.33;;
3726;SDS011;1879;45.876;12.300;2022-08-24T08:24:00;2.57;;;2.37;;
3726;SDS011;1879;45.876;12.300;2022-08-24T08:26:44;2.33;;;1.87;;
3726;SDS011;1879;45.876;12.300;2022-08-24T08:29:13;3.20;;;2.70;;
3726;SDS011;1879;45.876;12.300;2022-08-24T08:31:40;3.90;;;2.80;;
3726;SDS011;1879;45.876;12.300;2022-08-24T08:34:07;2.67;;;2.20;;
3726;SDS011;1879;45.876;12.300;2022-08-24T08:36:35;2.70;;;2.50;;
3726;SDS011;1879;45.876;12.300;2022-08-24T08:39:05;2.67;;;2.47;;
3726;SDS011;1879;45.876;12.300;2022-08-24T08:44:52;2.70;;;2.50;;
3726;SDS011;1879;45.876;12.300;2022-08-24T08:47:50;3.20;;;2.67;;
3726;SDS011;1879;45.876;12.300;2022-08-24T08:54:25;2.10;;;1.90;;
3726;SDS011;1879;45.876;12.300;2022-08-24T08:57:02;2.50;;;2.30;;
3726;SDS011;1879;45.876;12.300;2022-08-24T08:59:46;3.30;;;2.20;;
3726;SDS011;1879;45.876;12.300;2022-08-24T09:02:25;2.90;;;2.70;;
3726;SDS011;1879;45.876;12.300;2022-08-24T09:05:19;4.67;;;2.50;;
3726;SDS011;1879;45.876;12.300;2022-08-24T09:08:14;2.90;;;2.33;;
3726;SDS011;1879;45.876;12.300;2022-08-24T09:10:53;2.37;;;2.17;;
3726;SDS011;1879;45.876;12.300;2022-08-24T09:13:31;2.30;;;2.10;;
3726;SDS011;1879;45.876;12.300;2022-08-24T09:16:25;3.73;;;2.67;;
3726;SDS011;1879;45.876;12.300;2022-08-24T09:19:04;4.53;;;2.20;;
3726;SDS011;1879;45.876;12.300;2022-08-24T09:21:54;3.60;;;2.53;;
3726;SDS011;1879;45.876;12.300;2022-08-24T09:24:39;2.57;;;2.37;;
3726;SDS011;1879;45.876;12.300;2022-08-24T09:27:23;6.27;;;2.50;;
3726;SDS011;1879;45.876;12.300;2022-08-24T09:30:03;2.70;;;2.17;;
3726;SDS011;1879;45.876;12.300;2022-08-24T09:32:40;3.60;;;2.73;;
3726;SDS011;1879;45.876;12.300;2022-08-24T09:35:22;2.70;;;2.50;;
3726;SDS011;1879;45.876;12.300;2022-08-24T09:37:58;3.50;;;2.33;;
3726;SDS011;1879;45.876;12.300;2022-08-24T09:46:41;2.63;;;2.43;;
3726;SDS011;1879;45.876;12.300;2022-08-24T09:50:00;2.60;;;2.40;;
3726;SDS011;1879;45.876;12.300;2022-08-24T09:52:57;2.67;;;2.47;;
3726;SDS011;1879;45.876;12.300;2022-08-24T09:55:57;2.80;;;2.23;;
3726;SDS011;1879;45.876;12.300;2022-08-24T09:58:43;3.40;;;2.20;;
3726;SDS011;1879;45.876;12.300;2022-08-24T10:01:23;3.00;;;2.70;;
3726;SDS011;1879;45.876;12.300;2022-08-24T10:04:09;3.10;;;2.57;;
3726;SDS011;1879;45.876;12.300;2022-08-24T10:06:48;3.73;;;2.37;;
3726;SDS011;1879;45.876;12.300;2022-08-24T10:12:31;3.10;;;2.80;;
3726;SDS011;1879;45.876;12.300;2022-08-24T10:15:08;2.50;;;2.30;;
3726;SDS011;1879;45.876;12.300;2022-08-24T10:17:42;2.40;;;2.20;;
3726;SDS011;1879;45.876;12.300;2022-08-24T10:20:23;2.70;;;2.50;;
3726;SDS011;1879;45.876;12.300;2022-08-24T10:23:00;4.03;;;2.87;;
3726;SDS011;1879;45.876;12.300;2022-08-24T10:25:45;2.53;;;2.33;;
3726;SDS011;1879;45.876;12.300;2022-08-24T10:28:26;2.70;;;2.50;;
3726;SDS011;1879;45.876;12.300;2022-08-24T10:31:17;4.13;;;2.47;;
3726;SDS011;1879;45.876;12.300;2022-08-24T10:33:52;4.73;;;2.73;;
3726;SDS011;1879;45.876;12.300;2022-08-24T10:36:41;2.57;;;2.37;;
3726;SDS011;1879;45.876;12.300;2022-08-24T10:42:36;3.10;;;2.30;;
3726;SDS011;1879;45.876;12.300;2022-08-24T10:45:52;6.43;;;2.57;;
3726;SDS011;1879;45.876;12.300;2022-08-24T10:51:52;2.47;;;2.27;;
3726;SDS011;1879;45.876;12.300;2022-08-24T10:54:36;2.57;;;2.20;;
3726;SDS011;1879;45.876;12.300;2022-08-24T10:57:06;2.77;;;2.27;;
3726;SDS011;1879;45.876;12.300;2022-08-24T10:59:42;2.40;;;2.20;;
3726;SDS011;1879;45.876;12.300;2022-08-24T11:02:26;2.10;;;1.87;;
3726;SDS011;1879;45.876;12.300;2022-08-24T11:04:55;2.20;;;2.00;;
3726;SDS011;1879;45.876;12.300;2022-08-24T11:07:24;2.80;;;2.00;;
3726;SDS011;1879;45.876;12.300;2022-08-24T11:09:55;2.27;;;2.10;;
3726;SDS011;1879;45.876;12.300;2022-08-24T11:12:27;2.37;;;2.17;;
3726;SDS011;1879;45.876;12.300;2022-08-24T11:14:56;2.17;;;1.80;;
3726;SDS011;1879;45.876;12.300;2022-08-24T11:17:26;2.20;;;2.00;;
3726;SDS011;1879;45.876;12.300;2022-08-24T11:19:55;2.90;;;2.10;;
3726;SDS011;1879;45.876;12.300;2022-08-24T11:22:27;3.57;;;2.27;;
3726;SDS011;1879;45.876;12.300;2022-08-24T11:24:58;2.20;;;1.80;;
3726;SDS011;1879;45.876;12.300;2022-08-24T11:27:29;2.10;;;2.00;;
3726;SDS011;1879;45.876;12.300;2022-08-24T11:30:07;2.10;;;1.90;;
3726;SDS011;1879;45.876;12.300;2022-08-24T11:32:38;2.53;;;1.97;;
3726;SDS011;1879;45.876;12.300;2022-08-24T11:35:14;2.63;;;2.00;;
3726;SDS011;1879;45.876;12.300;2022-08-24T11:37:44;2.63;;;1.90;;
3726;SDS011;1879;45.876;12.300;2022-08-24T11:40:12;1.80;;;1.70;;
3726;SDS011;1879;45.876;12.300;2022-08-24T11:42:45;1.60;;;1.50;;
3726;SDS011;1879;45.876;12.300;2022-08-24T11:45:23;1.77;;;1.63;;
3726;SDS011;1879;45.876;12.300;2022-08-24T11:48:00;2.00;;;1.80;;
3726;SDS011;1879;45.876;12.300;2022-08-24T11:50:38;2.00;;;1.77;;
3726;SDS011;1879;45.876;12.300;2022-08-24T11:53:13;1.90;;;1.73;;
3726;SDS011;1879;45.876;12.300;2022-08-24T11:55:50;1.63;;;1.53;;
3726;SDS011;1879;45.876;12.300;2022-08-24T11:58:28;3.80;;;1.63;;
3726;SDS011;1879;45.876;12.300;2022-08-24T12:01:04;1.83;;;1.67;;
3726;SDS011;1879;45.876;12.300;2022-08-24T12:03:41;3.00;;;2.10;;
3726;SDS011;1879;45.876;12.300;2022-08-24T12:06:17;2.03;;;1.93;;
3726;SDS011;1879;45.876;12.300;2022-08-24T12:08:54;2.57;;;1.70;;
3726;SDS011;1879;45.876;12.300;2022-08-24T12:11:30;2.00;;;1.80;;
3726;SDS011;1879;45.876;12.300;2022-08-24T12:14:07;2.43;;;1.83;;
3726;SDS011;1879;45.876;12.300;2022-08-24T12:16:44;6.23;;;2.20;;
3726;SDS011;1879;45.876;12.300;2022-08-24T12:19:14;2.00;;;1.90;;
3726;SDS011;1879;45.876;12.300;2022-08-24T12:21:48;4.70;;;2.23;;
3726;SDS011;1879;45.876;12.300;2022-08-24T12:24:20;2.27;;;1.90;;
3726;SDS011;1879;45.876;12.300;2022-08-24T12:26:55;2.40;;;1.87;;
3726;SDS011;1879;45.876;12.300;2022-08-24T12:29:29;3.20;;;1.80;;
3726;SDS011;1879;45.876;12.300;2022-08-24T12:32:03;5.80;;;2.00;;
3726;SDS011;1879;45.876;12.300;2022-08-24T12:34:43;2.20;;;2.00;;
3726;SDS011;1879;45.876;12.300;2022-08-24T12:37:18;1.90;;;1.80;;
3726;SDS011;1879;45.876;12.300;2022-08-24T12:39:53;1.63;;;1.53;;
3726;SDS011;1879;45.876;12.300;2022-08-24T12:42:27;2.43;;;1.40;;
3726;SDS011;1879;45.876;12.300;2022-08-24T12:45:01;1.50;;;1.40;;
3726;SDS011;1879;45.876;12.300;2022-08-24T12:47:32;1.90;;;1.57;;
3726;SDS011;1879;45.876;12.300;2022-08-24T12:50:04;2.03;;;1.70;;
3726;SDS011;1879;45.876;12.300;2022-08-24T12:55:46;3.63;;;1.50;;
3726;SDS011;1879;45.876;12.300;2022-08-24T12:58:45;3.53;;;1.80;;
3726;SDS011;1879;45.876;12.300;2022-08-24T13:01:24;2.03;;;1.93;;
3726;SDS011;1879;45.876;12.300;2022-08-24T13:04:05;1.60;;;1.50;;
3726;SDS011;1879;45.876;12.300;2022-08-24T13:06:42;1.77;;;1.67;;
3726;SDS011;1879;45.876;12.300;2022-08-24T13:09:27;2.87;;;1.70;;
3726;SDS011;1879;45.876;12.300;2022-08-24T13:11:58;1.60;;;1.50;;
3726;SDS011;1879;45.876;12.300;2022-08-24T13:14:49;2.63;;;2.00;;
3726;SDS011;1879;45.876;12.300;2022-08-24T13:17:17;2.20;;;1.53;;
3726;SDS011;1879;45.876;12.300;2022-08-24T13:19:45;1.63;;;1.53;;
3726;SDS011;1879;45.876;12.300;2022-08-24T13:22:46;1.77;;;1.20;;
3726;SDS011;1879;45.876;12.300;2022-08-24T13:28:32;1.80;;;1.70;;
3726;SDS011;1879;45.876;12.300;2022-08-24T13:31:18;1.60;;;1.50;;
3726;SDS011;1879;45.876;12.300;2022-08-24T13:33:51;1.87;;;1.77;;
3726;SDS011;1879;45.876;12.300;2022-08-24T13:39:42;2.33;;;1.60;;
3726;SDS011;1879;45.876;12.300;2022-08-24T13:45:30;2.07;;;1.50;;
3726;SDS011;1879;45.876;12.300;2022-08-24T13:48:13;1.53;;;1.43;;
3726;SDS011;1879;45.876;12.300;2022-08-24T13:51:08;1.50;;;1.40;;
3726;SDS011;1879;45.876;12.300;2022-08-24T13:53:49;2.00;;;1.60;;
3726;SDS011;1879;45.876;12.300;2022-08-24T13:59:35;1.83;;;1.60;;
3726;SDS011;1879;45.876;12.300;2022-08-24T14:02:19;1.57;;;1.43;;
3726;SDS011;1879;45.876;12.300;2022-08-24T14:04:57;2.77;;;1.33;;
3726;SDS011;1879;45.876;12.300;2022-08-24T14:07:33;1.50;;;1.40;;
3726;SDS011;1879;45.876;12.300;2022-08-24T14:10:24;1.30;;;1.20;;
3726;SDS011;1879;45.876;12.300;2022-08-24T14:13:14;1.40;;;1.30;;
3726;SDS011;1879;45.876;12.300;2022-08-24T14:15:54;1.43;;;1.33;;
3726;SDS011;1879;45.876;12.300;2022-08-24T14:18:43;1.40;;;1.30;;
3726;SDS011;1879;45.876;12.300;2022-08-24T14:21:16;1.20;;;1.10;;
3726;SDS011;1879;45.876;12.300;2022-08-24T14:23:47;1.23;;;1.13;;
3726;SDS011;1879;45.876;12.300;2022-08-24T14:29:26;3.87;;;1.47;;
3726;SDS011;1879;45.876;12.300;2022-08-24T14:35:29;2.50;;;1.37;;
3726;SDS011;1879;45.876;12.300;2022-08-24T14:38:03;1.33;;;1.23;;
3726;SDS011;1879;45.876;12.300;2022-08-24T14:40:43;1.70;;;1.60;;
3726;SDS011;1879;45.876;12.300;2022-08-24T14:43:45;1.80;;;1.70;;
3726;SDS011;1879;45.876;12.300;2022-08-24T14:46:31;1.80;;;1.40;;
3726;SDS011;1879;45.876;12.300;2022-08-24T14:49:08;1.73;;;1.30;;
3726;SDS011;1879;45.876;12.300;2022-08-24T14:51:59;2.93;;;1.50;;
3726;SDS011;1879;45.876;12.300;2022-08-24T14:54:37;2.93;;;1.67;;
3726;SDS011;1879;45.876;12.300;2022-08-24T14:57:18;2.00;;;1.33;;
3726;SDS011;1879;45.876;12.300;2022-08-24T15:00:03;1.70;;;1.40;;
3726;SDS011;1879;45.876;12.300;2022-08-24T15:05:42;1.50;;;1.40;;
3726;SDS011;1879;45.876;12.300;2022-08-24T15:08:26;1.37;;;1.27;;
3726;SDS011;1879;45.876;12.300;2022-08-24T15:10:58;1.60;;;1.50;;
3726;SDS011;1879;45.876;12.300;2022-08-24T15:13:35;1.60;;;1.50;;
3726;SDS011;1879;45.876;12.300;2022-08-24T15:16:09;2.60;;;2.10;;
3726;SDS011;1879;45.876;12.300;2022-08-24T15:18:39;2.30;;;1.40;;
3726;SDS011;1879;45.876;12.300;2022-08-24T15:21:18;3.27;;;1.97;;
3726;SDS011;1879;45.876;12.300;2022-08-24T15:23:53;1.87;;;1.77;;
3726;SDS011;1879;45.876;12.300;2022-08-24T15:26:40;1.60;;;1.50;;
3726;SDS011;1879;45.876;12.300;2022-08-24T15:29:31;2.53;;;1.57;;
3726;SDS011;1879;45.876;12.300;2022-08-24T15:32:03;1.30;;;1.20;;
3726;SDS011;1879;45.876;12.300;2022-08-24T15:34:39;1.37;;;1.27;;
3726;SDS011;1879;45.876;12.300;2022-08-24T15:37:09;1.73;;;1.47;;
3726;SDS011;1879;45.876;12.300;2022-08-24T15:39:38;1.23;;;1.13;;
3726;SDS011;1879;45.876;12.300;2022-08-24T15:42:06;1.97;;;1.33;;
3726;SDS011;1879;45.876;12.300;2022-08-24T15:47:31;1.43;;;1.30;;
3726;SDS011;1879;45.876;12.300;2022-08-24T15:50:02;1.40;;;1.30;;
3726;SDS011;1879;45.876;12.300;2022-08-24T15:52:36;1.40;;;1.20;;
3726;SDS011;1879;45.876;12.300;2022-08-24T15:55:10;1.43;;;1.20;;
3726;SDS011;1879;45.876;12.300;2022-08-24T15:57:51;1.40;;;1.30;;
3726;SDS011;1879;45.876;12.300;2022-08-24T16:00:19;1.87;;;1.77;;
3726;SDS011;1879;45.876;12.300;2022-08-24T16:05:49;1.50;;;1.30;;
3726;SDS011;1879;45.876;12.300;2022-08-24T16:08:18;1.73;;;1.63;;
3726;SDS011;1879;45.876;12.300;2022-08-24T16:10:46;1.10;;;1.00;;
3726;SDS011;1879;45.876;12.300;2022-08-24T16:13:25;1.13;;;1.00;;
3726;SDS011;1879;45.876;12.300;2022-08-24T16:15:57;1.77;;;1.53;;
3726;SDS011;1879;45.876;12.300;2022-08-24T16:18:41;1.67;;;1.57;;
3726;SDS011;1879;45.876;12.300;2022-08-24T16:21:12;1.30;;;1.20;;
3726;SDS011;1879;45.876;12.300;2022-08-24T16:23:43;1.70;;;1.60;;
3726;SDS011;1879;45.876;12.300;2022-08-24T16:26:19;1.90;;;1.70;;
3726;SDS011;1879;45.876;12.300;2022-08-24T16:28:49;1.23;;;1.13;;